createdAt,value
2018-01-03T00:00:19.094Z,37.34
2018-01-03T00:02:46.455Z,37.44
2018-01-03T00:05:13.865Z,37.31
2018-01-03T00:07:41.352Z,37.58
2018-01-03T00:10:15.875Z,37.34
2018-01-03T00:12:43.391Z,37.08
2018-01-03T00:15:10.802Z,37.28
2018-01-03T00:17:38.153Z,37.14
2018-01-03T00:20:05.549Z,37.16
2018-01-03T00:22:33.009Z,37.60
2018-01-03T00:25:00.623Z,37.37
2018-01-03T00:27:28.034Z,37.15
2018-01-03T00:30:16.706Z,37.24
2018-01-03T00:32:44.145Z,37.30
2018-01-03T00:35:11.594Z,37.06
2018-01-03T00:37:39.313Z,36.94
2018-01-03T00:40:06.735Z,37.08
2018-01-03T00:42:34.314Z,37.19
2018-01-03T00:45:02.062Z,37.09
2018-01-03T00:47:29.468Z,36.99
2018-01-03T00:49:57.673Z,37.35
2018-01-03T00:52:25.304Z,37.00
2018-01-03T00:54:52.694Z,37.03
2018-01-03T00:57:20.182Z,36.93
2018-01-03T00:59:54.926Z,36.72
2018-01-03T01:02:22.625Z,37.14
2018-01-03T01:04:50.536Z,37.17
2018-01-03T01:07:18.043Z,37.09
2018-01-03T01:09:45.459Z,37.03
2018-01-03T01:12:12.972Z,36.89
2018-01-03T01:14:40.745Z,36.89
2018-01-03T01:17:08.145Z,36.79
2018-01-03T01:19:37.085Z,36.67
2018-01-03T01:22:04.611Z,36.85
2018-01-03T01:24:32.027Z,36.92
2018-01-03T01:26:59.731Z,36.90
2018-01-03T01:29:27.089Z,36.88
2018-01-03T01:31:54.821Z,36.73
2018-01-03T01:34:23.779Z,36.58
2018-01-03T01:36:52.739Z,36.50
2018-01-03T01:39:27.358Z,36.76
2018-01-03T01:41:54.857Z,36.52
2018-01-03T01:44:23.302Z,36.83
2018-01-03T01:46:50.659Z,36.85
2018-01-03T01:49:19.697Z,37.00
2018-01-03T01:51:47.397Z,36.97
2018-01-03T01:54:15.546Z,36.50
2018-01-03T01:56:43.329Z,36.66
2018-01-03T01:59:11.788Z,36.60
2018-01-03T02:01:39.173Z,36.51
2018-01-03T02:04:06.580Z,36.80
2018-01-03T02:06:33.962Z,36.51
2018-01-03T02:09:01.395Z,36.67
2018-01-03T02:11:28.833Z,36.68
2018-01-03T02:13:56.192Z,36.54
2018-01-03T02:16:23.570Z,36.29
2018-01-03T02:18:51.018Z,36.64
2018-01-03T02:21:18.870Z,36.43
2018-01-03T02:23:46.535Z,36.09
2018-01-03T02:26:14.113Z,36.15
2018-01-03T02:28:41.530Z,36.01
2018-01-03T02:31:08.863Z,35.78
2018-01-03T02:33:36.278Z,35.69
2018-01-03T02:36:04.050Z,35.61
2018-01-03T02:38:31.409Z,35.49
2018-01-03T02:40:58.826Z,35.55
2018-01-03T02:43:26.210Z,35.30
2018-01-03T02:45:53.672Z,35.58
2018-01-03T02:48:21.334Z,35.39
2018-01-03T02:50:48.698Z,35.66
2018-01-03T02:53:16.454Z,35.46
2018-01-03T02:55:43.824Z,35.20
2018-01-03T02:58:11.184Z,35.11
2018-01-03T03:00:38.564Z,34.96
2018-01-03T03:03:06.036Z,35.01
2018-01-03T03:05:33.591Z,35.02
2018-01-03T03:08:00.953Z,35.02
2018-01-03T03:10:28.449Z,35.11
2018-01-03T03:12:55.809Z,34.87
2018-01-03T03:15:23.178Z,35.00
2018-01-03T03:17:50.677Z,34.80
2018-01-03T03:20:18.024Z,35.04
2018-01-03T03:22:45.360Z,34.89
2018-01-03T03:25:12.901Z,34.90
2018-01-03T03:27:40.234Z,34.72
2018-01-03T03:30:07.754Z,34.85
2018-01-03T03:32:35.278Z,34.66
2018-01-03T03:35:02.641Z,34.63
2018-01-03T03:37:30.093Z,34.74
2018-01-03T03:40:04.968Z,34.64
2018-01-03T03:45:05.689Z,34.72
2018-01-03T03:47:33.093Z,34.72
2018-01-03T04:04:17.334Z,34.40
2018-01-03T04:06:44.737Z,34.44
2018-01-03T04:09:12.116Z,34.62
2018-01-03T04:11:39.516Z,34.63
2018-01-03T04:14:06.850Z,34.54
2018-01-03T04:16:34.294Z,34.38
2018-01-03T04:19:01.752Z,34.44
2018-01-03T04:21:29.305Z,34.47
2018-01-03T04:23:56.642Z,34.37
2018-01-03T04:26:24.111Z,34.50
2018-01-03T04:28:58.737Z,34.55
2018-01-03T04:31:26.120Z,34.65
2018-01-03T04:33:53.652Z,34.28
2018-01-03T04:36:21.026Z,34.29
2018-01-03T04:38:48.510Z,34.04
2018-01-03T04:41:16.166Z,34.09
2018-01-03T04:43:43.558Z,34.09
2018-01-03T04:46:11.806Z,34.10
2018-01-03T04:48:39.257Z,33.77
2018-01-03T04:51:06.710Z,33.83
2018-01-03T04:53:34.138Z,33.74
2018-01-03T04:56:01.536Z,33.65
2018-01-03T04:58:28.962Z,33.57
2018-01-03T05:00:56.426Z,33.83
2018-01-03T05:03:24.289Z,33.62
2018-01-03T05:05:51.676Z,33.32
2018-01-03T05:08:19.071Z,33.04
2018-01-03T05:10:46.703Z,33.37
2018-01-03T05:13:14.151Z,33.23
2018-01-03T05:15:42.234Z,33.68
2018-01-03T05:18:09.700Z,33.18
2018-01-03T05:20:37.422Z,33.44
2018-01-03T05:23:04.875Z,33.04
2018-01-03T05:25:32.337Z,33.34
2018-01-03T05:27:59.791Z,33.04
2018-01-03T05:30:27.226Z,33.06
2018-01-03T05:32:54.672Z,33.05
2018-01-03T05:35:22.097Z,32.99
2018-01-03T05:37:49.487Z,33.10
2018-01-03T05:40:16.950Z,33.03
2018-01-03T05:42:44.384Z,32.76
2018-01-03T05:45:11.774Z,33.01
2018-01-03T05:47:39.203Z,32.90
2018-01-03T05:50:14.362Z,32.68
2018-01-03T05:52:41.822Z,32.78
2018-01-03T05:55:09.249Z,32.72
2018-01-03T05:57:36.908Z,32.85
2018-01-03T06:00:04.383Z,32.85
2018-01-03T06:02:31.867Z,32.75
2018-01-03T06:04:59.266Z,32.61
2018-01-03T06:07:26.746Z,32.63
2018-01-03T06:12:54.743Z,32.95
2018-01-03T06:15:22.173Z,32.67
2018-01-03T06:17:49.566Z,33.17
2018-01-03T06:20:16.981Z,32.88
2018-01-03T06:22:44.414Z,32.74
2018-01-03T06:25:11.870Z,32.95
2018-01-03T06:27:39.399Z,32.94
2018-01-03T06:33:20.044Z,32.30
2018-01-03T06:35:47.477Z,32.13
2018-01-03T06:38:14.942Z,32.69
2018-01-03T06:40:42.389Z,32.25
2018-01-03T06:43:09.802Z,32.05
2018-01-03T06:45:37.297Z,32.02
2018-01-03T06:48:04.689Z,32.13
2018-01-03T06:50:32.169Z,32.12
2018-01-03T06:53:00.101Z,31.86
2018-01-03T06:55:27.571Z,32.12
2018-01-03T06:57:55.036Z,31.86
2018-01-03T07:00:24.100Z,31.53
2018-01-03T07:02:52.792Z,32.04
2018-01-03T07:05:20.640Z,31.92
2018-01-03T07:07:48.581Z,32.02
2018-01-03T07:10:16.441Z,32.21
2018-01-03T07:12:44.657Z,31.91
2018-01-03T07:15:12.502Z,32.07
2018-01-03T07:17:40.171Z,32.01
2018-01-03T07:20:08.287Z,31.85
2018-01-03T07:22:36.528Z,32.02
2018-01-03T07:25:04.629Z,31.58
2018-01-03T07:27:32.369Z,31.65
2018-01-03T07:30:00.316Z,31.73
2018-01-03T07:32:28.075Z,31.86
2018-01-03T07:34:56.981Z,31.85
2018-01-03T07:37:25.228Z,31.76
2018-01-03T07:39:53.149Z,32.06
2018-01-03T07:42:20.916Z,31.89
2018-01-03T07:44:48.850Z,31.55
2018-01-03T07:47:16.706Z,31.83
2018-01-03T07:49:44.227Z,32.22
2018-01-03T07:52:11.754Z,31.99
2018-01-03T07:54:39.608Z,32.00
2018-01-03T07:57:07.604Z,31.65
2018-01-03T07:59:35.424Z,31.87
2018-01-03T08:02:02.991Z,32.47
2018-01-03T08:04:30.973Z,32.62
2018-01-03T08:06:58.983Z,32.49
2018-01-03T08:09:26.509Z,32.54
2018-01-03T08:11:54.559Z,32.06
2018-01-03T08:14:22.519Z,32.21
2018-01-03T08:16:50.009Z,32.53
2018-01-03T08:19:17.435Z,31.77
2018-01-03T08:21:45.906Z,31.86
2018-01-03T08:24:13.481Z,32.23
2018-01-03T08:26:41.055Z,31.74
2018-01-03T08:29:16.691Z,32.03
2018-01-03T08:31:44.142Z,31.77
2018-01-03T08:34:12.160Z,31.79
2018-01-03T08:36:39.744Z,31.73
2018-01-03T08:39:07.473Z,31.76
2018-01-03T08:41:35.522Z,32.00
2018-01-03T08:44:03.020Z,31.74
2018-01-03T08:46:31.062Z,31.74
2018-01-03T08:48:59.366Z,31.77
2018-01-03T08:51:26.973Z,32.14
2018-01-03T08:53:55.007Z,32.38
2018-01-03T08:56:22.609Z,31.65
2018-01-03T08:58:50.402Z,31.86
2018-01-03T09:01:18.119Z,32.24
2018-01-03T09:03:45.945Z,31.69
2018-01-03T09:06:13.450Z,31.40
2018-01-03T09:11:33.280Z,31.40
2018-01-03T09:14:00.938Z,31.42
2018-01-03T09:16:28.448Z,31.37
2018-01-03T09:18:55.866Z,31.66
2018-01-03T09:21:23.347Z,31.30
2018-01-03T09:23:50.832Z,31.59
2018-01-03T09:26:18.362Z,31.42
2018-01-03T09:28:45.855Z,31.51
2018-01-03T09:31:13.328Z,31.59
2018-01-03T09:33:40.802Z,31.38
2018-01-03T09:36:08.241Z,31.19
2018-01-03T09:38:35.678Z,31.34
2018-01-03T09:41:03.238Z,31.15
2018-01-03T09:43:30.780Z,31.51
2018-01-03T09:45:58.330Z,31.08
2018-01-03T09:48:25.951Z,31.13
2018-01-03T09:50:53.343Z,30.94
2018-01-03T09:53:20.989Z,30.64
2018-01-03T09:55:48.494Z,30.93
2018-01-03T09:58:15.910Z,30.77
2018-01-03T10:00:43.444Z,30.90
2018-01-03T10:03:10.867Z,30.63
2018-01-03T10:05:38.316Z,30.68
2018-01-03T10:08:05.705Z,30.44
2018-01-03T10:10:33.226Z,30.67
2018-01-03T10:13:00.709Z,30.67
2018-01-03T10:15:28.412Z,30.72
2018-01-03T10:17:56.138Z,30.72
2018-01-03T10:20:23.620Z,31.07
2018-01-03T10:22:51.079Z,31.23
2018-01-03T10:25:18.482Z,31.54
2018-01-03T10:27:45.942Z,30.59
2018-01-03T10:30:13.524Z,30.61
2018-01-03T10:32:40.931Z,30.69
2018-01-03T10:35:08.566Z,30.28
2018-01-03T10:37:35.959Z,30.27
2018-01-03T10:40:03.464Z,30.35
2018-01-03T10:42:31.084Z,30.35
2018-01-03T10:44:58.617Z,30.31
2018-01-03T10:47:26.003Z,30.26
2018-01-03T10:49:53.528Z,29.92
2018-01-03T10:52:20.979Z,29.93
2018-01-03T10:54:48.459Z,29.98
2018-01-03T10:57:15.965Z,30.08
2018-01-03T10:59:43.505Z,30.23
2018-01-03T11:02:11.237Z,30.19
2018-01-03T11:04:38.756Z,30.22
2018-01-03T11:07:06.214Z,30.30
2018-01-03T11:09:34.317Z,30.39
2018-01-03T11:12:01.892Z,30.49
2018-01-03T11:14:29.457Z,30.19
2018-01-03T11:16:57.824Z,30.29
2018-01-03T11:19:25.455Z,30.20
2018-01-03T11:21:53.051Z,30.08
2018-01-03T11:24:20.773Z,30.12
2018-01-03T11:26:48.280Z,30.40
2018-01-03T11:29:16.041Z,29.96
2018-01-03T11:31:43.555Z,30.49
2018-01-03T11:34:11.057Z,30.12
2018-01-03T11:36:38.794Z,30.03
2018-01-03T11:39:06.255Z,30.03
2018-01-03T11:41:33.691Z,30.41
2018-01-03T11:44:01.130Z,30.16
2018-01-03T11:46:28.631Z,30.01
2018-01-03T11:48:56.041Z,29.87
2018-01-03T11:51:23.749Z,29.88
2018-01-03T11:53:51.245Z,30.02
2018-01-03T11:56:18.675Z,30.40
2018-01-03T11:58:46.337Z,30.72
2018-01-03T12:01:13.855Z,30.70
2018-01-03T12:03:41.426Z,30.23
2018-01-03T12:06:08.904Z,30.46
2018-01-03T12:08:36.322Z,30.46
2018-01-03T12:11:03.822Z,30.22
2018-01-03T12:13:31.262Z,30.68
2018-01-03T12:15:58.647Z,30.33
2018-01-03T12:18:26.038Z,30.51
2018-01-03T12:20:53.583Z,30.53
2018-01-03T12:23:21.236Z,30.77
2018-01-03T12:25:48.658Z,30.58
2018-01-03T12:28:16.131Z,30.66
2018-01-03T12:30:43.724Z,30.42
2018-01-03T12:33:11.201Z,30.38
2018-01-03T12:35:38.735Z,30.39
2018-01-03T12:38:06.290Z,30.37
2018-01-03T12:40:34.094Z,29.98
2018-01-03T12:43:01.611Z,29.72
2018-01-03T12:45:29.140Z,29.79
2018-01-03T12:47:56.662Z,30.02
2018-01-03T12:50:26.533Z,30.09
2018-01-03T12:52:54.579Z,30.13
2018-01-03T12:55:22.411Z,30.15
2018-01-03T12:57:50.228Z,29.89
2018-01-03T13:00:18.120Z,29.87
2018-01-03T13:02:45.663Z,29.77
2018-01-03T13:05:13.107Z,29.87
2018-01-03T13:07:40.627Z,29.61
2018-01-03T13:10:10.676Z,29.69
2018-01-03T13:12:38.139Z,29.89
2018-01-03T13:15:05.642Z,29.76
2018-01-03T13:17:34.075Z,29.75
2018-01-03T13:20:01.787Z,29.60
2018-01-03T13:22:29.293Z,29.94
2018-01-03T13:24:56.790Z,29.66
2018-01-03T13:27:24.342Z,29.86
2018-01-03T13:29:51.766Z,29.88
2018-01-03T13:32:19.327Z,29.71
2018-01-03T13:34:46.737Z,29.83
2018-01-03T13:37:14.367Z,29.73
2018-01-03T13:39:41.824Z,29.70
2018-01-03T13:42:09.304Z,29.84
2018-01-03T13:44:36.822Z,29.80
2018-01-03T13:47:04.222Z,29.36
2018-01-03T13:49:31.679Z,29.38
2018-01-03T13:51:59.449Z,29.27
2018-01-03T13:54:26.899Z,29.28
2018-01-03T13:56:54.370Z,29.32
2018-01-03T13:59:21.827Z,29.52
2018-01-03T14:01:49.297Z,29.58
2018-01-03T14:04:16.751Z,29.42
2018-01-03T14:06:44.877Z,29.45
2018-01-03T14:09:12.534Z,29.25
2018-01-03T14:11:40.762Z,29.19
2018-01-03T14:14:08.207Z,29.46
2018-01-03T14:16:35.681Z,29.37
2018-01-03T14:19:03.215Z,29.88
2018-01-03T14:21:30.705Z,29.60
2018-01-03T14:23:58.179Z,29.56
2018-01-03T14:26:25.877Z,29.79
2018-01-03T14:28:53.461Z,29.50
2018-01-03T14:31:20.923Z,29.90
2018-01-03T14:33:48.403Z,29.66
2018-01-03T14:36:15.813Z,29.64
2018-01-03T14:38:49.011Z,29.78
2018-01-03T14:41:16.560Z,29.40
2018-01-03T14:43:44.022Z,29.41
2018-01-03T14:46:11.427Z,29.46
2018-01-03T14:48:38.904Z,29.42
2018-01-03T14:51:06.412Z,29.37
2018-01-03T14:53:34.104Z,29.56
2018-01-03T14:56:01.531Z,29.69
2018-01-03T14:58:29.074Z,29.83
2018-01-03T15:00:56.705Z,29.54
2018-01-03T15:03:24.219Z,29.79
2018-01-03T15:05:52.954Z,29.58
2018-01-03T15:08:20.404Z,29.65
2018-01-03T15:10:47.835Z,29.55
2018-01-03T15:15:48.663Z,29.58
2018-01-03T15:18:16.192Z,29.62
2018-01-03T15:20:43.596Z,29.87
2018-01-03T15:23:11.343Z,29.66
2018-01-03T15:25:38.849Z,29.69
2018-01-03T15:28:06.303Z,29.63
2018-01-03T15:30:33.699Z,29.77
2018-01-03T15:33:01.160Z,30.14
2018-01-03T15:35:28.655Z,29.91
2018-01-03T15:37:56.100Z,29.80
2018-01-03T15:40:23.671Z,29.62
2018-01-03T15:42:51.262Z,29.65
2018-01-03T15:45:18.678Z,29.76
2018-01-03T15:47:46.249Z,29.66
2018-01-03T15:50:13.686Z,29.69
2018-01-03T15:52:41.150Z,29.74
2018-01-03T15:55:08.559Z,29.54
2018-01-03T15:57:35.938Z,29.72
2018-01-03T16:00:03.403Z,29.72
2018-01-03T16:02:31.099Z,29.73
2018-01-03T16:04:58.603Z,29.70
2018-01-03T16:07:26.019Z,29.67
2018-01-03T16:09:53.479Z,29.70
2018-01-03T16:12:20.918Z,29.62
2018-01-03T16:14:48.303Z,29.74
2018-01-03T16:17:15.787Z,29.73
2018-01-03T16:19:43.304Z,30.15
2018-01-03T16:22:10.977Z,30.06
2018-01-03T16:24:38.499Z,30.49
2018-01-03T16:27:05.921Z,30.47
2018-01-03T16:29:33.480Z,30.33
2018-01-03T16:32:00.930Z,30.15
2018-01-03T16:34:28.472Z,30.06
2018-01-03T16:36:55.851Z,30.20
2018-01-03T16:39:23.405Z,30.11
2018-01-03T16:41:50.838Z,30.18
2018-01-03T16:44:18.464Z,30.09
2018-01-03T16:46:45.905Z,29.89
2018-01-03T16:49:13.575Z,30.19
2018-01-03T16:51:41.098Z,30.58
2018-01-03T16:54:08.572Z,30.37
2018-01-03T16:56:36.118Z,30.70
2018-01-03T16:59:03.599Z,30.39
2018-01-03T17:01:31.172Z,30.40
2018-01-03T17:03:58.744Z,30.73
2018-01-03T17:06:26.357Z,30.27
2018-01-03T17:08:53.870Z,30.25
2018-01-03T17:11:21.697Z,30.28
2018-01-03T17:13:49.145Z,30.99
2018-01-03T17:16:16.920Z,30.18
2018-01-03T17:18:44.518Z,31.21
2018-01-03T17:21:12.087Z,31.68
2018-01-03T17:23:39.907Z,31.53
2018-01-03T17:50:00.285Z,29.79
2018-01-03T17:53:45.110Z,30.07
2018-01-03T17:56:12.648Z,29.85
2018-01-03T17:58:40.262Z,29.42
2018-01-03T18:01:07.639Z,29.14
2018-01-03T18:03:35.369Z,29.31
2018-01-03T18:06:02.921Z,29.20
2018-01-03T18:08:31.227Z,29.34
2018-01-03T18:10:58.761Z,29.51
2018-01-03T18:13:26.826Z,29.51
2018-01-03T18:15:54.286Z,30.00
2018-01-03T18:18:21.706Z,29.78
2018-01-03T18:20:49.127Z,29.80
2018-01-03T18:23:17.335Z,29.91
2018-01-03T18:25:44.902Z,29.61
2018-01-03T18:28:12.308Z,29.31
2018-01-03T18:30:39.734Z,29.81
2018-01-03T18:33:07.304Z,29.46
2018-01-03T18:35:34.834Z,29.76
2018-01-03T18:38:02.274Z,29.66
2018-01-03T18:40:29.654Z,29.33
2018-01-03T18:42:57.084Z,29.15
2018-01-03T18:45:24.504Z,29.14
2018-01-03T18:47:51.863Z,29.14
2018-01-03T18:50:19.274Z,29.19
2018-01-03T18:52:46.652Z,29.13
2018-01-03T18:55:14.075Z,29.15
2018-01-03T18:57:41.564Z,29.14
2018-01-03T19:00:08.985Z,29.11
2018-01-03T19:02:36.406Z,29.10
2018-01-03T19:05:03.786Z,29.13
2018-01-03T19:07:31.209Z,29.36
2018-01-03T19:09:58.610Z,29.31
2018-01-03T19:12:26.019Z,29.52
2018-01-03T19:14:53.434Z,29.73
2018-01-03T19:17:21.014Z,29.86
2018-01-03T19:19:48.446Z,30.10
2018-01-03T19:22:15.996Z,30.22
2018-01-03T19:24:43.486Z,30.44
2018-01-03T19:27:10.865Z,30.50
2018-01-03T19:29:38.243Z,30.68
2018-01-03T19:32:05.707Z,30.76
2018-01-03T19:34:33.205Z,30.82
2018-01-03T19:37:00.587Z,30.81
2018-01-03T19:39:28.054Z,30.89
2018-01-03T19:41:55.461Z,30.85
2018-01-03T19:44:22.965Z,30.91
2018-01-03T19:46:50.335Z,30.90
2018-01-03T19:49:17.861Z,30.98
2018-01-03T19:51:45.259Z,31.14
2018-01-03T19:54:12.643Z,31.20
2018-01-03T19:56:40.130Z,31.21
2018-01-03T19:59:07.524Z,31.22
2018-01-03T20:01:34.917Z,31.34
2018-01-03T20:04:02.394Z,31.34
2018-01-03T20:06:29.785Z,31.43
2018-01-03T20:08:57.150Z,31.24
2018-01-03T20:11:24.672Z,31.40
2018-01-03T20:13:52.034Z,31.32
2018-01-03T20:16:19.401Z,31.22
2018-01-03T20:18:46.817Z,31.31
2018-01-03T20:21:14.179Z,31.29
2018-01-03T20:23:41.538Z,31.30
2018-01-03T20:26:08.937Z,31.34
2018-01-03T20:28:36.342Z,31.48
2018-01-03T20:31:03.742Z,31.50
2018-01-03T20:33:31.113Z,31.65
2018-01-03T20:35:58.509Z,31.52
2018-01-03T20:38:25.876Z,31.65
2018-01-03T20:40:53.293Z,31.61
2018-01-03T20:43:20.680Z,31.70
2018-01-03T20:45:48.052Z,31.84
2018-01-03T20:48:15.495Z,31.74
2018-01-03T20:50:42.881Z,31.87
2018-01-03T20:53:10.404Z,31.85
2018-01-03T20:55:37.838Z,32.03
2018-01-03T20:58:05.205Z,31.90
2018-01-03T21:00:32.605Z,31.95
2018-01-03T21:02:59.971Z,31.96
2018-01-03T21:05:27.386Z,31.97
2018-01-03T21:07:54.786Z,31.88
2018-01-03T21:10:22.191Z,31.99
2018-01-03T21:12:49.555Z,32.02
2018-01-03T21:15:16.983Z,32.04
2018-01-03T21:17:44.486Z,32.09
2018-01-03T21:20:11.885Z,32.09
2018-01-03T21:22:39.218Z,32.18
2018-01-03T21:25:06.621Z,32.17
2018-01-03T21:27:34.081Z,32.18
2018-01-03T21:30:01.430Z,32.18
2018-01-03T21:32:28.954Z,32.14
2018-01-03T21:34:56.369Z,32.18
2018-01-03T21:37:23.818Z,32.29
2018-01-03T21:39:51.388Z,32.37
2018-01-03T21:42:18.745Z,32.41
2018-01-03T21:44:46.204Z,32.38
2018-01-03T21:47:13.678Z,32.35
2018-01-03T21:49:41.033Z,32.31
2018-01-03T21:52:08.397Z,32.35
2018-01-03T21:54:35.802Z,32.43
2018-01-03T21:57:03.334Z,32.42
2018-01-03T21:59:30.858Z,32.55
2018-01-03T22:01:58.290Z,32.47
2018-01-03T22:04:25.702Z,32.47
2018-01-03T22:06:53.126Z,32.44
2018-01-03T22:09:20.562Z,32.62
2018-01-03T22:11:47.925Z,32.58
2018-01-03T22:14:15.358Z,32.51
2018-01-03T22:16:42.775Z,32.56
2018-01-03T22:19:10.154Z,32.47
2018-01-03T22:21:37.569Z,32.60
2018-01-03T22:24:04.934Z,32.55
2018-01-03T22:26:32.308Z,32.63
2018-01-03T22:28:59.714Z,32.61
2018-01-03T22:31:27.124Z,32.57
2018-01-03T22:33:54.485Z,32.62
2018-01-03T22:36:21.886Z,32.68
2018-01-03T22:38:49.250Z,32.72
2018-01-03T22:41:16.723Z,32.71
2018-01-03T22:43:44.166Z,32.64
2018-01-03T22:46:11.530Z,32.68
2018-01-03T22:48:38.967Z,32.82
2018-01-03T22:51:06.347Z,32.85
2018-01-03T22:53:33.738Z,33.02
2018-01-03T22:56:01.102Z,32.93
2018-01-03T22:58:28.510Z,32.85
2018-01-03T23:00:55.953Z,32.78
2018-01-03T23:03:23.358Z,32.90
2018-01-03T23:05:50.774Z,32.99
2018-01-03T23:08:18.174Z,32.94
2018-01-03T23:10:45.538Z,32.93
2018-01-03T23:13:13.071Z,32.92
2018-01-03T23:15:40.434Z,32.86
2018-01-03T23:18:07.808Z,32.95
2018-01-03T23:20:35.218Z,32.99
2018-01-03T23:23:02.592Z,33.04
2018-01-03T23:25:30.074Z,33.08
2018-01-03T23:27:57.563Z,33.14
2018-01-03T23:30:24.948Z,33.13
2018-01-03T23:35:25.787Z,33.06
2018-01-03T23:37:53.163Z,33.12
2018-01-03T23:40:20.653Z,33.10
2018-01-03T23:42:48.070Z,33.18
2018-01-03T23:45:15.458Z,33.21
2018-01-03T23:47:42.871Z,33.20
2018-01-03T23:50:10.274Z,33.13
2018-01-03T23:52:37.695Z,33.11
2018-01-03T23:55:05.114Z,33.11
2018-01-03T23:57:32.575Z,33.14
2018-01-03T23:59:59.955Z,33.03
